Terminal Aerodrome Forecast
Issued by NWS Chicago, IL

Home | Current Version | Previous Version | Text Only | Print | Product List | Glossary On
Versions: 1 2 3 4 5 6 7 8 9 10 11 12 13 14 15 16 17 18 19 20 21 22 23 24 25 26 27 28 29 30 31 32 33 34 35 36 37 38 39 40 41
000
FTUS43 KLOT 231500 AAB
TAFRFD
TAF AMD
KRFD 231559Z 2316/2412 19013KT P6SM SCT060 OVC150
     FM231900 20009KT 6SM -SHRA SCT020 OVC035
     FM232200 20004KT 6SM BR OVC020
     FM240700 VRB03KT 2SM BR SCT020=

USA.gov is the U.S. government's official web portal to all federal, state and local government web resources and services.